Time;durP1;ratioP1;P1;durP2;ratioP2;P2;SDS_P1;SDS_P2;PMS_P1;PMS_P2;Temp;Humidity;BMP_temperature;BMP_pressure;BME280_temperature;BME280_humidity;BME280_pressure;Samples;Min_cycle;Max_cycle;Signal;HPM_P1;HPM_P2
2021/11/13 00:25:52;;;;;;;59.47;28.97;;;;;;;6.68;100.00;101013.41;20730095;28;20314;-56
2021/11/13 00:35:55;;;;;;;48.97;25.47;;;;;;;6.49;100.00;101007.94;20726878;28;20234;-56
2021/11/13 00:45:59;;;;;;;44.03;23.97;;;;;;;6.40;100.00;101005.63;20725908;28;20309;-55
2021/11/13 01:06:02;;;;;;;43.33;22.03;;;;;;;6.33;100.00;101009.41;20991757;27;20598;-57
2021/11/13 01:16:05;;;;;;;42.37;23.57;;;;;;;6.31;100.00;100993.53;20973969;28;20605;-59
2021/11/13 01:26:09;;;;;;;42.73;23.10;;;;;;;6.32;100.00;100958.16;20973191;28;20685;-59
2021/11/13 01:36:13;;;;;;;48.87;24.60;;;;;;;6.36;100.00;100953.63;20972162;28;20231;-56
2021/11/13 01:56:17;;;;;;;48.97;24.53;;;;;;;6.39;100.00;100951.75;21217384;27;20599;-59
2021/11/13 02:06:22;;;;;;;35.30;19.30;;;;;;;6.42;100.00;100937.47;21226619;27;20221;-57
2021/11/13 02:16:25;;;;;;;34.50;19.20;;;;;;;6.43;100.00;100937.44;21225607;27;20235;-58
2021/11/13 02:26:28;;;;;;;36.30;19.73;;;;;;;6.43;100.00;100933.91;21224855;27;20318;-66
2021/11/13 02:36:32;;;;;;;40.63;21.87;;;;;;;6.46;100.00;100936.47;21224206;27;20279;-57
2021/11/13 02:46:36;;;;;;;42.77;21.60;;;;;;;6.38;100.00;100915.53;21205196;27;20246;-63
2021/11/13 02:56:39;;;;;;;42.13;21.30;;;;;;;6.34;100.00;100918.34;21204381;27;20239;-62
2021/11/13 03:06:43;;;;;;;41.30;21.57;;;;;;;6.28;100.00;100900.03;21169744;27;20305;-66
2021/11/13 03:16:46;;;;;;;39.07;20.47;;;;;;;6.23;100.00;100915.25;21164465;27;20250;-65
2021/11/13 03:26:50;;;;;;;37.20;20.53;;;;;;;6.28;100.00;100923.91;21163518;27;20318;-65
2021/11/13 03:36:54;;;;;;;36.30;19.40;;;;;;;6.27;100.00;100917.72;21145105;27;20222;-65
2021/11/13 03:46:57;;;;;;;35.87;19.67;;;;;;;6.24;100.00;100906.38;21143816;27;20238;-66
2021/11/13 03:57:00;;;;;;;30.17;18.00;;;;;;;6.27;100.00;100890.38;21143104;27;20242;-63
2021/11/13 04:07:04;;;;;;;29.93;17.60;;;;;;;6.21;100.00;100895.88;21160364;27;20707;-65
2021/11/13 04:27:04;;;;;;;36.20;20.17;;;;;;;6.20;100.00;100872.94;21210199;27;20572;-65
2021/11/13 04:37:14;;;;;;;35.90;19.63;;;;;;;6.18;100.00;100886.25;21232628;27;20581;-68
2021/11/13 04:47:18;;;;;;;34.23;20.63;;;;;;;6.21;100.00;100867.59;21209018;27;20770;-56
2021/11/13 04:57:22;;;;;;;42.77;24.70;;;;;;;6.18;100.00;100880.94;21224924;27;20271;-62
2021/11/13 05:07:25;;;;;;;41.17;22.93;;;;;;;6.28;100.00;100897.41;21224523;27;20221;-62
2021/11/13 05:17:30;;;;;;;44.80;26.57;;;;;;;6.33;100.00;100876.88;21223365;27;20537;-55
2021/11/13 05:27:35;;;;;;;46.27;26.37;;;;;;;6.37;100.00;100878.50;21222898;27;20223;-58
2021/11/13 05:37:39;;;;;;;38.93;23.63;;;;;;;6.37;100.00;100868.75;21169273;27;20250;-55
2021/11/13 05:47:43;;;;;;;36.83;23.47;;;;;;;6.35;100.00;100873.25;21164257;27;20223;-57
2021/11/13 06:17:43;;;;;;;31.97;21.30;;;;;;;6.63;100.00;100931.38;21213051;27;20561;-55
2021/11/13 06:27:47;;;;;;;33.93;23.40;;;;;;;6.64;100.00;100917.19;21208536;27;20249;-56
2021/11/13 06:37:50;;;;;;;36.43;24.93;;;;;;;6.65;100.00;100910.94;21225798;27;20242;-55
2021/11/13 06:47:58;;;;;;;72.97;44.97;;;;;;;6.68;100.00;100924.09;21224651;27;20240;-57
2021/11/13 06:58:01;;;;;;;57.50;36.40;;;;;;;6.75;100.00;100930.91;21139514;27;20220;-56
2021/11/13 07:08:05;;;;;;;66.10;40.73;;;;;;;6.84;100.00;100906.69;21138035;27;20322;-58
2021/11/13 07:38:05;;;;;;;66.13;37.97;;;;;;;7.23;100.00;100879.47;21032622;27;20630;-67
2021/11/13 07:48:08;;;;;;;73.13;39.47;;;;;;;7.48;100.00;100868.66;21057730;27;20249;-67
2021/11/13 07:58:15;;;;;;;63.77;36.23;;;;;;;7.89;100.00;100885.44;21057201;27;20279;-62
2021/11/13 08:08:19;;;;;;;60.33;36.70;;;;;;;8.07;100.00;100868.69;21068870;27;20225;-63
2021/11/13 08:18:22;;;;;;;68.23;41.40;;;;;;;8.26;100.00;100856.28;21055671;27;20309;-65
2021/11/13 08:28:26;;;;;;;65.20;42.07;;;;;;;8.40;100.00;100861.00;21054563;27;20278;-64
2021/11/13 08:38:30;;;;;;;55.83;39.00;;;;;;;8.69;100.00;100872.06;21053845;27;20263;-63
2021/11/13 08:48:33;;;;;;;60.57;43.77;;;;;;;8.63;100.00;100873.22;21000759;28;20250;-65
2021/11/13 08:58:36;;;;;;;68.80;42.70;;;;;;;8.47;100.00;100874.84;20996343;28;20350;-65
2021/11/13 09:08:41;;;;;;;67.63;43.63;;;;;;;8.18;100.00;100855.78;20995915;28;20238;-64
2021/11/13 09:18:44;;;;;;;75.63;47.13;;;;;;;8.16;100.00;100836.38;20993732;28;20236;-65
2021/11/13 09:28:47;;;;;;;64.17;41.80;;;;;;;8.39;100.00;100815.84;20994108;28;20234;-63
2021/11/13 09:38:55;;;;;;;64.60;42.07;;;;;;;8.76;100.00;100826.47;20993392;28;20227;-55
2021/11/13 09:48:59;;;;;;;60.33;41.93;;;;;;;9.01;100.00;100832.31;20992540;28;20264;-57
2021/11/13 09:59:02;;;;;;;53.27;39.73;;;;;;;9.46;100.00;100833.56;20956025;28;20276;-59
2021/11/13 10:09:06;;;;;;;51.13;39.70;;;;;;;10.00;100.00;100810.28;20990714;28;20309;-62
2021/11/13 10:19:10;;;;;;;47.50;36.77;;;;;;;10.39;100.00;100809.94;21005164;28;20242;-58
2021/11/13 10:29:20;;;;;;;48.77;36.57;;;;;;;10.14;100.00;100807.75;20988978;28;20244;-54
2021/11/13 10:39:29;;;;;;;45.00;35.13;;;;;;;9.93;100.00;100809.75;20988191;28;20223;-54
2021/11/13 10:49:32;;;;;;;44.80;35.97;;;;;;;9.97;100.00;100805.13;21019422;28;20248;-54
2021/11/13 10:59:42;;;;;;;56.67;42.30;;;;;;;10.03;100.00;100804.78;20985974;28;20309;-55
2021/11/13 11:09:47;;;;;;;54.27;39.53;;;;;;;10.07;100.00;100793.88;20986318;28;20250;-54
2021/11/13 11:19:53;;;;;;;55.00;40.67;;;;;;;10.28;100.00;100781.19;20986513;28;20222;-56
2021/11/13 11:30:04;;;;;;;49.00;37.20;;;;;;;10.52;100.00;100788.75;20985367;28;20226;-54
2021/11/13 11:40:14;;;;;;;54.50;39.77;;;;;;;10.34;100.00;100770.19;20902080;28;20242;-56
2021/11/13 11:50:24;;;;;;;60.40;41.10;;;;;;;10.27;100.00;100782.13;20978623;28;20740;-53
2021/11/13 12:00:31;;;;;;;54.67;38.13;;;;;;;10.56;100.00;100775.16;20984246;28;20252;-54
2021/11/13 12:10:35;;;;;;;51.77;39.43;;;;;;;10.43;100.00;100764.31;20984233;28;20257;-56
2021/11/13 12:20:38;;;;;;;55.97;43.30;;;;;;;10.05;100.00;100754.91;20992599;28;20233;-55
2021/11/13 12:30:55;;;;;;;77.23;47.73;;;;;;;10.01;100.00;100761.38;20998410;28;20230;-55
2021/11/13 12:41:30;;;;;;;59.43;45.53;;;;;;;9.96;100.00;100752.75;20996718;28;20223;-57
2021/11/13 12:51:33;;;;;;;52.87;42.47;;;;;;;9.87;100.00;100737.25;20898774;28;20250;-57
2021/11/13 13:01:36;;;;;;;50.57;40.33;;;;;;;9.89;100.00;100732.72;20945557;28;20323;-63
2021/11/13 13:21:37;;;;;;;44.30;35.57;;;;;;;9.97;100.00;100717.13;21065164;27;20571;-57
2021/11/13 13:31:41;;;;;;;52.27;38.40;;;;;;;9.83;100.00;100719.69;21057699;27;20238;-62
2021/11/13 13:41:44;;;;;;;38.80;31.57;;;;;;;9.53;100.00;100723.09;21051532;27;20275;-59
2021/11/13 13:51:51;;;;;;;35.70;30.73;;;;;;;9.16;100.00;100723.31;21055876;27;20257;-63
2021/11/13 14:02:06;;;;;;;37.40;30.10;;;;;;;8.88;100.00;100723.88;21055595;27;20230;-61
2021/11/13 14:12:10;;;;;;;30.93;26.60;;;;;;;8.73;100.00;100736.13;21052949;27;20581;-59
2021/11/13 14:22:13;;;;;;;38.13;28.43;;;;;;;8.64;100.00;100736.59;21069177;27;20216;-61
2021/11/13 14:32:19;;;;;;;36.73;30.43;;;;;;;8.43;100.00;100711.94;20917983;28;20231;-61
2021/11/13 14:42:22;;;;;;;33.13;28.10;;;;;;;8.24;100.00;100711.91;20926489;28;20215;-59
2021/11/13 15:02:24;;;;;;;38.57;31.83;;;;;;;7.93;100.00;100717.84;20957761;27;20634;-60
2021/11/13 15:12:33;;;;;;;35.80;29.10;;;;;;;7.52;100.00;100714.44;20943507;27;20221;-64
2021/11/13 15:22:38;;;;;;;31.77;26.47;;;;;;;7.05;100.00;100731.59;21033008;27;20221;-66
2021/11/13 15:32:53;;;;;;;41.80;30.53;;;;;;;6.65;100.00;100721.81;20988383;28;20232;-65
2021/11/13 15:43:00;;;;;;;33.97;26.27;;;;;;;6.40;100.00;100729.94;21010428;28;20239;-57
2021/11/13 16:03:04;;;;;;;42.80;30.03;;;;;;;6.08;100.00;100729.41;20996011;27;20583;-57
2021/11/13 16:13:07;;;;;;;31.77;25.30;;;;;;;5.99;100.00;100729.78;20984782;28;20602;-57
2021/11/13 16:23:12;;;;;;;30.67;23.40;;;;;;;5.69;100.00;100745.00;21044828;27;21002;-56
2021/11/13 16:43:12;;;;;;;36.53;24.87;;;;;;;5.07;100.00;100747.31;21182008;27;20669;-56
2021/11/13 16:53:18;;;;;;;33.53;23.90;;;;;;;4.82;100.00;100743.78;21186704;27;20285;-58
2021/11/13 17:03:21;;;;;;;39.83;26.47;;;;;;;4.62;100.00;100737.34;21154870;27;20224;-57
2021/11/13 17:13:24;;;;;;;46.03;30.77;;;;;;;4.49;100.00;100733.38;21180824;27;20236;-59
2021/11/13 17:23:28;;;;;;;36.07;26.07;;;;;;;4.31;100.00;100741.91;21100043;27;20234;-58
2021/11/13 17:53:26;;;;;;;41.23;27.20;;;;;;;3.84;100.00;100744.25;20857461;27;20720;-62
2021/11/13 18:03:32;;;;;;;43.97;28.53;;;;;;;3.72;100.00;100718.22;20850247;28;20649;-63
2021/11/13 18:13:35;;;;;;;45.17;28.67;;;;;;;3.59;100.00;100715.09;20848553;28;20803;-63
2021/11/13 18:33:34;;;;;;;52.50;31.63;;;;;;;3.38;100.00;100726.22;21178966;27;20671;-63
2021/11/13 18:43:39;;;;;;;50.37;31.90;;;;;;;3.31;100.00;100735.22;21183249;27;20218;-65
2021/11/13 18:53:43;;;;;;;66.67;38.03;;;;;;;3.24;100.00;100724.00;21162808;27;20306;-60
2021/11/13 19:03:47;;;;;;;57.93;34.47;;;;;;;3.11;100.00;100724.38;21162684;27;20238;-64
2021/11/13 19:13:50;;;;;;;57.10;32.17;;;;;;;3.05;100.00;100722.75;21146104;27;20243;-65
2021/11/13 19:33:50;;;;;;;48.27;28.80;;;;;;;3.10;100.00;100728.78;21016465;27;20650;-64
2021/11/13 19:43:53;;;;;;;64.80;34.33;;;;;;;3.12;100.00;100740.16;20931370;28;20232;-66
2021/11/13 20:04:02;;;;;;;66.23;38.43;;;;;;;2.78;100.00;100749.84;21051677;27;20603;-60
2021/11/13 20:34:02;;;;;;;65.43;33.80;;;;;;;2.25;100.00;100746.75;20850462;27;20675;-59
2021/11/13 21:24:07;;;;;;;161.10;36.53;;;;;;;1.59;100.00;100757.00;21094529;27;21078;-60
2021/11/13 22:04:08;;;;;;;147.70;38.30;;;;;;;1.74;100.00;100781.22;20928967;27;20676;-58
2021/11/13 22:54:05;;;;;;;78.83;39.00;;;;;;;3.38;100.00;100794.81;21007559;27;21066;-62
2021/11/13 23:24:02;;;;;;;61.80;36.30;;;;;;;3.57;100.00;100779.34;21091905;27;20603;-59
2021/11/13 23:34:09;;;;;;;57.33;34.40;;;;;;;3.60;100.00;100789.84;21020938;27;20228;-61
2021/11/13 23:44:13;;;;;;;50.07;30.83;;;;;;;3.73;100.00;100790.34;20990876;27;20230;-59
